createdAt,value
2018-12-13T00:01:06.610Z,17.03
2018-12-13T00:03:37.633Z,16.60
2018-12-13T00:06:08.653Z,16.43
2018-12-13T00:08:37.715Z,16.67
2018-12-13T00:11:06.922Z,17.00
2018-12-13T00:13:36.007Z,16.53
2018-12-13T00:16:05.016Z,16.53
2018-12-13T00:18:34.176Z,16.90
2018-12-13T00:21:03.373Z,16.23
2018-12-13T00:23:32.405Z,16.23
2018-12-13T00:26:01.395Z,17.70
2018-12-13T00:28:30.439Z,19.00
2018-12-13T00:30:59.474Z,18.63
2018-12-13T00:33:28.531Z,16.57
2018-12-13T00:35:57.576Z,16.40
2018-12-13T00:38:26.672Z,16.30
2018-12-13T00:40:55.706Z,16.60
2018-12-13T00:43:24.761Z,15.73
2018-12-13T00:45:53.881Z,16.70
2018-12-13T00:48:22.959Z,15.43
2018-12-13T00:50:52.292Z,16.20
2018-12-13T00:53:21.345Z,16.23
2018-12-13T00:55:50.444Z,15.37
2018-12-13T00:58:19.444Z,16.03
2018-12-13T01:00:48.480Z,16.17
2018-12-13T01:03:17.668Z,14.23
2018-12-13T01:05:46.702Z,14.70
2018-12-13T01:08:15.750Z,14.30
2018-12-13T01:10:44.778Z,13.60
2018-12-13T01:13:13.958Z,14.63
2018-12-13T01:15:42.991Z,13.23
2018-12-13T01:18:12.176Z,14.67
2018-12-13T01:20:42.512Z,14.33
2018-12-13T01:23:11.597Z,13.47
2018-12-13T01:25:40.670Z,14.57
2018-12-13T01:28:09.685Z,13.87
2018-12-13T01:30:38.704Z,15.13
2018-12-13T01:33:07.956Z,14.00
2018-12-13T01:35:37.232Z,15.10
2018-12-13T01:38:06.315Z,14.20
2018-12-13T01:40:35.513Z,15.70
2018-12-13T01:43:04.573Z,15.27
2018-12-13T01:45:34.162Z,15.20
2018-12-13T01:48:03.238Z,16.00
2018-12-13T01:50:32.474Z,17.13
2018-12-13T01:53:01.501Z,17.30
2018-12-13T01:55:30.572Z,16.57
2018-12-13T01:57:59.590Z,16.33
2018-12-13T02:00:28.738Z,16.20
2018-12-13T02:02:57.844Z,17.07
2018-12-13T02:05:27.032Z,16.17
2018-12-13T02:07:56.066Z,17.03
2018-12-13T02:10:25.116Z,16.30
2018-12-13T02:12:54.246Z,16.47
2018-12-13T02:15:23.291Z,16.67
2018-12-13T02:17:52.950Z,15.80
2018-12-13T02:20:21.985Z,16.23
2018-12-13T02:22:51.039Z,15.37
2018-12-13T02:25:20.122Z,15.30
2018-12-13T02:27:49.336Z,14.40
2018-12-13T02:30:20.435Z,13.93
2018-12-13T02:32:50.545Z,15.43
2018-12-13T02:35:19.591Z,14.33
2018-12-13T02:37:48.678Z,14.43
2018-12-13T02:40:17.866Z,13.73
2018-12-13T02:42:46.908Z,12.57
2018-12-13T02:45:15.927Z,14.23
2018-12-13T02:47:45.452Z,12.77
2018-12-13T02:50:15.684Z,13.43
2018-12-13T02:52:44.730Z,12.17
2018-12-13T02:55:13.772Z,13.77
2018-12-13T02:57:42.823Z,13.37
2018-12-13T03:00:12.026Z,12.20
2018-12-13T03:02:43.115Z,12.60
2018-12-13T03:05:12.392Z,13.03
2018-12-13T03:07:41.549Z,12.03
2018-12-13T03:10:12.154Z,12.53
2018-12-13T03:12:41.481Z,11.07
2018-12-13T03:15:10.533Z,10.33
2018-12-13T03:17:39.593Z,10.13
2018-12-13T03:20:09.075Z,10.93
2018-12-13T03:22:38.248Z,11.03
2018-12-13T03:25:07.730Z,11.13
2018-12-13T03:27:37.080Z,10.70
2018-12-13T03:30:06.698Z,11.43
2018-12-13T03:32:36.014Z,10.57
2018-12-13T03:35:05.519Z,10.87
2018-12-13T03:37:36.530Z,9.20
2018-12-13T03:40:06.406Z,9.80
2018-12-13T03:42:35.562Z,10.27
2018-12-13T03:45:05.269Z,10.77
2018-12-13T03:47:34.331Z,10.67
2018-12-13T03:50:03.778Z,10.83
2018-12-13T03:52:33.265Z,10.57
2018-12-13T03:55:02.325Z,9.60
2018-12-13T03:57:31.450Z,9.70
2018-12-13T04:00:00.471Z,9.43
2018-12-13T04:02:30.254Z,9.97
2018-12-13T04:04:59.580Z,9.37
2018-12-13T04:07:28.589Z,9.27
2018-12-13T04:09:57.713Z,9.70
2018-12-13T04:12:26.861Z,8.83
2018-12-13T04:14:56.203Z,9.80
2018-12-13T04:17:25.522Z,10.40
2018-12-13T04:19:56.662Z,9.47
2018-12-13T04:22:25.704Z,10.33
2018-12-13T04:24:54.734Z,9.47
2018-12-13T04:27:23.897Z,9.40
2018-12-13T04:29:52.969Z,9.40
2018-12-13T04:32:22.009Z,9.67
2018-12-13T04:34:51.025Z,10.47
2018-12-13T04:37:20.132Z,10.10
2018-12-13T04:39:49.161Z,10.67
2018-12-13T04:42:18.191Z,10.47
2018-12-13T04:44:47.480Z,10.33
2018-12-13T04:47:16.545Z,11.23
2018-12-13T04:49:46.036Z,11.83
2018-12-13T04:52:15.384Z,12.27
2018-12-13T04:54:44.444Z,12.40
2018-12-13T04:57:13.638Z,12.43
2018-12-13T04:59:42.688Z,12.60
2018-12-13T05:02:11.722Z,12.80
2018-12-13T05:04:40.776Z,13.43
2018-12-13T05:07:09.778Z,12.50
2018-12-13T05:09:38.863Z,12.37
2018-12-13T05:12:07.964Z,13.00
2018-12-13T05:14:36.993Z,13.13
2018-12-13T05:17:06.224Z,12.50
2018-12-13T05:19:35.846Z,12.57
2018-12-13T05:22:04.991Z,12.73
2018-12-13T05:24:34.036Z,12.20
2018-12-13T05:27:03.125Z,12.90
2018-12-13T05:29:32.148Z,12.73
2018-12-13T05:32:01.436Z,13.27
2018-12-13T05:34:30.446Z,12.70
2018-12-13T05:36:59.796Z,12.50
2018-12-13T05:39:28.858Z,12.40
2018-12-13T05:41:58.026Z,13.13
2018-12-13T05:44:27.012Z,14.33
2018-12-13T05:46:56.016Z,13.80
2018-12-13T05:49:25.070Z,14.13
2018-12-13T05:51:54.103Z,13.40
2018-12-13T05:54:23.133Z,13.17
2018-12-13T05:56:52.163Z,13.17
2018-12-13T05:59:21.238Z,13.20
2018-12-13T06:01:51.226Z,13.73
2018-12-13T06:04:20.456Z,13.30
2018-12-13T06:06:49.788Z,14.63
2018-12-13T06:09:19.174Z,14.87
2018-12-13T06:11:48.221Z,14.73
2018-12-13T06:14:17.408Z,14.30
2018-12-13T06:16:46.460Z,15.63
2018-12-13T06:19:15.524Z,14.80
2018-12-13T06:21:44.586Z,16.73
2018-12-13T06:24:13.779Z,15.30
2018-12-13T06:26:42.770Z,16.33
2018-12-13T06:29:11.802Z,17.97
2018-12-13T06:31:41.148Z,15.63
2018-12-13T06:34:10.263Z,16.30
2018-12-13T06:36:39.330Z,17.53
2018-12-13T06:39:08.826Z,15.90
2018-12-13T06:41:38.545Z,15.43
2018-12-13T06:44:07.550Z,15.07
2018-12-13T06:46:36.591Z,15.33
2018-12-13T06:49:05.774Z,15.03
2018-12-13T06:51:34.854Z,15.60
2018-12-13T06:54:03.862Z,15.93
2018-12-13T06:56:32.918Z,17.23
2018-12-13T06:59:01.940Z,16.27
2018-12-13T07:01:30.999Z,18.00
2018-12-13T07:04:00.109Z,18.27
2018-12-13T07:06:29.203Z,18.13
2018-12-13T07:08:58.230Z,17.70
2018-12-13T07:11:27.283Z,16.33
2018-12-13T07:13:56.586Z,16.60
2018-12-13T07:16:25.600Z,17.40
2018-12-13T07:18:54.623Z,16.60
2018-12-13T07:21:23.896Z,16.53
2018-12-13T07:23:53.306Z,16.07
2018-12-13T07:26:22.309Z,17.80
2018-12-13T07:28:51.312Z,17.37
2018-12-13T07:31:20.380Z,16.13
2018-12-13T07:33:49.534Z,16.37
2018-12-13T07:36:18.686Z,15.97
2018-12-13T07:38:47.793Z,16.10
2018-12-13T07:41:17.361Z,15.93
2018-12-13T07:43:46.447Z,16.53
2018-12-13T07:46:15.603Z,17.53
2018-12-13T07:48:44.632Z,16.97
2018-12-13T07:51:13.690Z,17.97
2018-12-13T07:53:42.693Z,16.90
2018-12-13T07:56:11.951Z,15.50
2018-12-13T07:58:41.197Z,16.90
2018-12-13T08:01:10.469Z,16.63
2018-12-13T08:03:40.465Z,14.33
2018-12-13T08:06:09.486Z,16.33
2018-12-13T08:08:38.507Z,14.37
2018-12-13T08:11:07.527Z,14.70
2018-12-13T08:13:36.605Z,13.63
2018-12-13T08:16:05.669Z,14.73
2018-12-13T08:18:36.685Z,14.20
2018-12-13T08:21:07.869Z,13.93
2018-12-13T08:23:36.905Z,12.87
2018-12-13T08:26:05.933Z,13.23
2018-12-13T08:28:34.996Z,12.93
2018-12-13T08:31:04.315Z,13.00
2018-12-13T08:33:33.390Z,13.13
2018-12-13T08:36:02.622Z,12.67
2018-12-13T08:38:31.737Z,12.47
2018-12-13T08:41:00.777Z,10.93
2018-12-13T08:43:29.850Z,11.43
2018-12-13T08:45:58.889Z,11.50
2018-12-13T08:48:28.184Z,10.80
2018-12-13T08:50:57.758Z,11.53
2018-12-13T08:53:26.829Z,10.30
2018-12-13T08:55:55.895Z,11.03
2018-12-13T08:58:25.285Z,11.40
2018-12-13T09:00:54.329Z,11.23
2018-12-13T09:03:23.392Z,10.90
2018-12-13T09:05:52.518Z,11.07
2018-12-13T09:08:21.670Z,12.33
2018-12-13T09:10:50.970Z,10.93
2018-12-13T09:13:20.023Z,12.03
2018-12-13T09:15:49.058Z,11.73
2018-12-13T09:18:18.257Z,11.73
2018-12-13T09:20:47.325Z,12.27
2018-12-13T09:23:16.560Z,11.80
2018-12-13T09:25:46.791Z,12.67
2018-12-13T09:28:16.063Z,12.47
2018-12-13T09:30:45.165Z,12.67
2018-12-13T09:33:14.248Z,13.73
2018-12-13T09:35:43.284Z,11.63
2018-12-13T09:38:12.664Z,11.77
2018-12-13T09:40:41.723Z,12.33
2018-12-13T09:43:10.828Z,12.17
2018-12-13T09:45:39.943Z,12.60
2018-12-13T09:48:09.027Z,12.60
2018-12-13T09:50:38.065Z,12.53
2018-12-13T09:53:07.262Z,12.53
2018-12-13T09:55:36.275Z,11.57
2018-12-13T09:58:05.502Z,11.90
2018-12-13T10:00:34.627Z,10.97
2018-12-13T10:03:03.853Z,11.33
2018-12-13T10:05:32.919Z,12.57
2018-12-13T10:08:01.946Z,12.43
2018-12-13T10:10:31.114Z,12.53
2018-12-13T10:13:00.320Z,12.20
2018-12-13T10:15:32.201Z,11.97
2018-12-13T10:18:00.981Z,11.47
2018-12-13T10:20:30.106Z,11.77
2018-12-13T10:22:59.195Z,11.20
2018-12-13T10:25:28.371Z,10.93
2018-12-13T10:27:57.870Z,10.90
2018-12-13T10:30:27.055Z,11.43
2018-12-13T10:32:56.346Z,11.07
2018-12-13T10:35:25.642Z,11.93
2018-12-13T10:37:54.904Z,11.60
2018-12-13T10:40:23.962Z,10.60
2018-12-13T10:42:52.980Z,10.97
2018-12-13T10:45:22.033Z,10.20
2018-12-13T10:47:51.050Z,10.17
2018-12-13T10:50:20.074Z,10.30
2018-12-13T10:52:49.130Z,10.40
2018-12-13T10:55:18.181Z,10.60
2018-12-13T10:57:47.923Z,10.93
2018-12-13T11:00:22.220Z,10.37
2018-12-13T11:03:06.894Z,11.13
2018-12-13T11:05:35.899Z,11.33
2018-12-13T11:08:04.954Z,10.50
2018-12-13T11:10:34.970Z,10.77
2018-12-13T11:13:03.998Z,10.67
2018-12-13T11:15:33.073Z,10.60
2018-12-13T11:18:02.130Z,11.10
2018-12-13T11:20:31.181Z,11.13
2018-12-13T11:23:00.371Z,10.80
2018-12-13T11:25:29.655Z,10.33
2018-12-13T11:30:26.741Z,10.03
2018-12-13T11:32:55.895Z,9.93
2018-12-13T11:35:25.217Z,10.10
2018-12-13T11:37:54.341Z,10.07
2018-12-13T11:40:23.429Z,9.97
2018-12-13T11:42:52.455Z,10.40
2018-12-13T11:45:21.540Z,11.37
2018-12-13T11:47:50.699Z,10.47
2018-12-13T11:50:19.752Z,11.17
2018-12-13T11:52:49.015Z,12.03
2018-12-13T11:55:38.241Z,11.23
2018-12-13T11:58:11.815Z,11.67
2018-12-13T12:00:41.075Z,11.67
2018-12-13T12:03:10.227Z,11.63
2018-12-13T12:05:39.472Z,10.47
2018-12-13T12:08:08.558Z,10.97
2018-12-13T12:10:37.581Z,11.13
2018-12-13T12:13:06.761Z,10.97
2018-12-13T12:15:35.851Z,10.93
2018-12-13T12:18:05.020Z,12.20
2018-12-13T12:20:34.113Z,11.43
2018-12-13T12:23:05.157Z,11.20
2018-12-13T12:25:34.203Z,11.53
2018-12-13T12:28:03.239Z,11.53
2018-12-13T12:30:32.475Z,11.40
2018-12-13T12:33:01.781Z,12.03
2018-12-13T12:35:31.729Z,12.00
2018-12-13T12:38:00.852Z,12.13
2018-12-13T12:40:30.235Z,13.77
2018-12-13T12:42:59.286Z,12.87
2018-12-13T12:45:28.642Z,13.37
2018-12-13T12:47:57.810Z,12.63
2018-12-13T12:50:26.865Z,13.37
2018-12-13T12:52:55.909Z,13.57
2018-12-13T12:55:24.967Z,12.97
2018-12-13T12:57:54.345Z,13.40
2018-12-13T13:00:23.367Z,13.67
2018-12-13T13:02:53.080Z,13.43
2018-12-13T13:05:22.097Z,13.43
2018-12-13T13:07:51.360Z,14.17
2018-12-13T13:10:20.361Z,13.03
2018-12-13T13:12:49.685Z,13.40
2018-12-13T13:15:18.703Z,13.83
2018-12-13T13:17:47.845Z,12.43
2018-12-13T13:20:16.900Z,13.47
2018-12-13T13:22:46.054Z,14.13
2018-12-13T13:25:15.248Z,13.50
2018-12-13T13:27:44.309Z,16.10
2018-12-13T13:30:13.301Z,14.60
2018-12-13T13:32:42.478Z,14.80
2018-12-13T13:35:13.381Z,15.00
2018-12-13T13:37:44.131Z,16.20
2018-12-13T13:40:13.326Z,16.43
2018-12-13T13:42:42.436Z,17.03
2018-12-13T13:45:11.899Z,14.23
2018-12-13T13:47:42.933Z,14.70
2018-12-13T13:50:12.503Z,15.50
2018-12-13T13:52:41.881Z,14.27
2018-12-13T13:55:10.890Z,15.27
2018-12-13T13:57:40.075Z,14.67
2018-12-13T14:00:10.381Z,13.83
2018-12-13T14:02:40.080Z,13.23
2018-12-13T14:05:09.612Z,13.43
2018-12-13T14:07:38.948Z,14.20
2018-12-13T14:10:08.341Z,13.07
2018-12-13T14:12:37.385Z,13.10
2018-12-13T14:15:07.495Z,12.80
2018-12-13T14:17:36.653Z,12.60
2018-12-13T14:20:06.088Z,12.73
2018-12-13T14:22:35.381Z,10.93
2018-12-13T14:25:05.023Z,10.47
2018-12-13T14:27:34.802Z,10.13
2018-12-13T14:30:04.989Z,11.03
2018-12-13T14:32:34.061Z,11.87
2018-12-13T14:35:03.421Z,10.73
2018-12-13T14:37:32.621Z,10.93
2018-12-13T14:40:01.711Z,11.87
2018-12-13T14:42:32.780Z,11.53
2018-12-13T14:45:02.129Z,10.60
2018-12-13T14:47:31.527Z,11.63
2018-12-13T14:50:00.551Z,10.67
2018-12-13T14:52:29.617Z,11.00
2018-12-13T14:54:58.765Z,12.63
2018-12-13T14:57:27.967Z,12.50
2018-12-13T14:59:56.986Z,13.40
2018-12-13T15:02:26.031Z,12.57
2018-12-13T15:04:55.557Z,12.73
2018-12-13T15:07:24.591Z,13.57
2018-12-13T15:09:53.717Z,13.57
2018-12-13T15:12:22.771Z,13.93
2018-12-13T15:14:52.222Z,13.57
2018-12-13T15:17:21.522Z,13.07
2018-12-13T15:19:50.761Z,12.83
2018-12-13T15:22:20.040Z,12.80
2018-12-13T15:24:49.161Z,11.70
2018-12-13T15:27:18.201Z,12.53
2018-12-13T15:29:47.372Z,11.93
2018-12-13T15:32:16.429Z,11.37
2018-12-13T15:34:45.463Z,11.27
2018-12-13T15:37:14.722Z,10.83
2018-12-13T15:39:43.929Z,12.40
2018-12-13T15:42:13.068Z,11.30
2018-12-13T15:44:44.139Z,11.40
2018-12-13T15:47:13.173Z,12.93
2018-12-13T15:49:42.967Z,12.37
2018-12-13T15:52:12.028Z,11.97
2018-12-13T15:54:41.053Z,12.13
2018-12-13T15:57:10.083Z,11.20
2018-12-13T15:59:39.471Z,11.77
2018-12-13T16:02:09.084Z,11.30
2018-12-13T16:04:38.506Z,10.93
2018-12-13T16:07:07.599Z,11.27
2018-12-13T16:09:37.068Z,11.13
2018-12-13T16:12:06.059Z,11.20
2018-12-13T16:14:35.113Z,10.90
2018-12-13T16:17:05.980Z,10.77
2018-12-13T16:19:35.074Z,10.67
2018-12-13T16:22:04.947Z,11.67
2018-12-13T16:24:35.088Z,11.00
2018-12-13T16:27:04.612Z,11.17
2018-12-13T16:29:33.874Z,10.83
2018-12-13T16:32:03.575Z,12.07
2018-12-13T16:34:32.594Z,11.23
2018-12-13T16:37:01.684Z,10.60
2018-12-13T16:39:30.834Z,11.17
2018-12-13T16:41:59.980Z,10.53
2018-12-13T16:44:28.979Z,9.67
2018-12-13T16:46:58.114Z,9.00
2018-12-13T16:49:27.358Z,9.47
2018-12-13T16:51:56.448Z,10.53
2018-12-13T16:54:25.552Z,9.77
2018-12-13T16:56:54.727Z,9.97
2018-12-13T16:59:23.842Z,10.67
2018-12-13T17:01:52.876Z,11.07
2018-12-13T17:04:21.965Z,10.40
2018-12-13T17:06:51.110Z,11.13
2018-12-13T17:09:20.132Z,11.67
2018-12-13T17:11:49.190Z,11.67
2018-12-13T17:14:18.187Z,11.93
2018-12-13T17:16:47.262Z,11.80
2018-12-13T17:19:16.802Z,11.60
2018-12-13T17:21:45.880Z,11.60
2018-12-13T17:24:15.214Z,12.17
2018-12-13T17:26:44.776Z,11.97
2018-12-13T17:29:14.311Z,11.97
2018-12-13T17:31:43.431Z,11.10
2018-12-13T17:34:12.754Z,10.50
2018-12-13T17:36:41.895Z,9.77
2018-12-13T17:39:10.969Z,9.67
2018-12-13T17:41:46.334Z,10.23
2018-12-13T17:44:15.396Z,10.20
2018-12-13T17:46:44.444Z,10.30
2018-12-13T17:49:13.564Z,10.97
2018-12-13T17:51:43.167Z,10.10
2018-12-13T17:54:12.260Z,9.90
2018-12-13T17:56:41.964Z,9.90
2018-12-13T17:59:11.029Z,10.63
2018-12-13T18:01:40.095Z,10.83
2018-12-13T18:04:09.200Z,10.70
2018-12-13T18:06:38.302Z,11.23
2018-12-13T18:09:08.485Z,10.60
2018-12-13T18:11:37.690Z,10.27
2018-12-13T18:14:06.713Z,10.10
2018-12-13T18:16:36.402Z,10.37
2018-12-13T18:19:08.124Z,10.97
2018-12-13T18:21:43.067Z,10.40
2018-12-13T18:24:15.976Z,10.60
2018-12-13T18:26:49.789Z,11.10
2018-12-13T18:29:25.941Z,12.30
2018-12-13T18:32:01.626Z,11.87
2018-12-13T18:34:33.509Z,11.13
2018-12-13T18:37:06.597Z,11.60
2018-12-13T18:39:41.423Z,11.70
2018-12-13T18:42:11.923Z,12.33
2018-12-13T18:44:44.121Z,11.47
2018-12-13T18:47:15.223Z,11.50
2018-12-13T18:49:46.134Z,13.53
2018-12-13T18:52:17.459Z,13.87
2018-12-13T18:54:46.563Z,13.90
2018-12-13T18:57:15.625Z,13.80
2018-12-13T18:59:44.723Z,13.43
2018-12-13T19:02:14.737Z,13.13
2018-12-13T19:04:43.818Z,11.17
2018-12-13T19:07:13.199Z,9.07
2018-12-13T19:09:42.303Z,9.20
2018-12-13T19:12:11.429Z,8.80
2018-12-13T19:14:40.689Z,10.13
2018-12-13T19:17:09.824Z,11.23
2018-12-13T19:19:38.937Z,11.63
2018-12-13T19:22:08.181Z,11.27
2018-12-13T19:24:38.504Z,13.43
2018-12-13T19:27:14.168Z,12.23
2018-12-13T19:29:43.402Z,13.07
2018-12-13T19:32:12.505Z,12.13
2018-12-13T19:34:41.574Z,10.93
2018-12-13T19:37:10.635Z,12.50
2018-12-13T19:39:39.972Z,13.13
2018-12-13T19:42:09.060Z,12.47
2018-12-13T19:44:39.414Z,13.53
2018-12-13T19:47:08.494Z,14.53
2018-12-13T19:49:37.652Z,14.43
2018-12-13T19:52:06.674Z,14.00
2018-12-13T19:54:35.764Z,14.27
2018-12-13T19:57:04.791Z,13.83
2018-12-13T19:59:34.177Z,11.97
2018-12-13T20:02:03.304Z,14.17
2018-12-13T20:04:33.443Z,12.83
2018-12-13T20:07:02.946Z,13.57
2018-12-13T20:09:32.260Z,13.87
2018-12-13T20:12:01.362Z,14.33
2018-12-13T20:14:30.886Z,14.13
2018-12-13T20:16:59.916Z,14.47
2018-12-13T20:19:29.023Z,16.73
2018-12-13T20:21:58.148Z,14.83
2018-12-13T20:24:27.219Z,14.77
2018-12-13T20:26:56.298Z,13.37
2018-12-13T20:29:25.785Z,12.33
2018-12-13T20:31:54.954Z,10.70
2018-12-13T20:34:24.066Z,10.30
2018-12-13T20:36:53.311Z,9.83
2018-12-13T20:39:22.374Z,10.37
2018-12-13T20:41:51.644Z,10.47
2018-12-13T20:44:20.942Z,11.37
2018-12-13T20:46:50.589Z,10.90
2018-12-13T20:49:19.856Z,10.53
2018-12-13T20:51:48.947Z,10.90
2018-12-13T20:54:19.485Z,11.83
2018-12-13T20:56:48.503Z,11.00
2018-12-13T20:59:17.677Z,11.00
2018-12-13T21:01:46.741Z,10.67
2018-12-13T21:04:16.787Z,11.47
2018-12-13T21:06:51.267Z,11.40
2018-12-13T21:09:20.353Z,12.20
2018-12-13T21:11:49.529Z,11.73
2018-12-13T21:14:18.608Z,11.63
2018-12-13T21:16:47.955Z,11.90
2018-12-13T21:19:17.010Z,11.30
2018-12-13T21:21:46.099Z,12.67
2018-12-13T21:24:15.319Z,11.97
2018-12-13T21:26:44.323Z,12.23
2018-12-13T21:29:13.465Z,12.07
2018-12-13T21:31:42.490Z,11.50
2018-12-13T21:34:11.869Z,12.87
2018-12-13T21:36:40.930Z,12.70
2018-12-13T21:39:10.034Z,12.23
2018-12-13T21:41:39.160Z,12.20
2018-12-13T21:44:08.498Z,11.80
2018-12-13T21:46:38.708Z,12.33
2018-12-13T21:49:09.195Z,11.73
2018-12-13T21:51:38.207Z,12.70
2018-12-13T21:54:07.324Z,13.47
2018-12-13T21:56:36.561Z,14.03
2018-12-13T21:59:06.708Z,13.23
2018-12-13T22:01:36.255Z,13.63
2018-12-13T22:04:05.957Z,13.67
2018-12-13T22:06:35.233Z,13.77
2018-12-13T22:09:07.102Z,12.50
2018-12-13T22:11:37.371Z,10.10
2018-12-13T22:14:12.821Z,9.60
2018-12-13T22:16:42.197Z,10.63
2018-12-13T22:19:11.249Z,12.80
2018-12-13T22:21:40.592Z,12.30
2018-12-13T22:24:09.761Z,12.57
2018-12-13T22:26:38.938Z,12.17
2018-12-13T22:29:07.988Z,12.37
2018-12-13T22:31:37.040Z,12.43
2018-12-13T22:34:06.122Z,11.53
2018-12-13T22:36:35.820Z,11.80
2018-12-13T22:39:06.622Z,11.67
2018-12-13T22:41:35.775Z,12.03
2018-12-13T22:44:05.045Z,12.37
2018-12-13T22:46:34.211Z,12.70
2018-12-13T22:49:03.481Z,12.63
2018-12-13T22:51:32.461Z,12.63
2018-12-13T22:54:01.744Z,13.20
2018-12-13T22:56:30.779Z,12.83
2018-12-13T22:58:59.804Z,12.53
2018-12-13T23:01:29.316Z,12.23
2018-12-13T23:03:58.648Z,11.53
2018-12-13T23:06:27.922Z,12.00
2018-12-13T23:08:56.987Z,12.10
2018-12-13T23:11:32.579Z,11.73
2018-12-13T23:13:57.408Z,12.40
2018-12-13T23:16:26.436Z,12.23
2018-12-13T23:18:55.674Z,11.47
2018-12-13T23:21:24.680Z,12.37
2018-12-13T23:23:53.745Z,12.77
2018-12-13T23:26:22.883Z,13.07
2018-12-13T23:28:51.936Z,13.37
2018-12-13T23:31:20.996Z,14.23
2018-12-13T23:33:50.252Z,13.43
2018-12-13T23:36:19.835Z,13.27
2018-12-13T23:38:49.865Z,13.10
2018-12-13T23:41:18.869Z,13.27
2018-12-13T23:43:48.070Z,12.27
2018-12-13T23:46:17.127Z,12.63
2018-12-13T23:48:46.107Z,12.77
2018-12-13T23:51:15.168Z,12.40
2018-12-13T23:53:44.261Z,11.73
2018-12-13T23:56:13.338Z,11.23
2018-12-13T23:58:42.481Z,12.90
